Time;durP1;ratioP1;P1;durP2;ratioP2;P2;SDS_P1;SDS_P2;PMS_P1;PMS_P2;Temp;Humidity;BMP_temperature;BMP_pressure;BME280_temperature;BME280_humidity;BME280_pressure;Samples;Min_cycle;Max_cycle;Signal;HPM_P1;HPM_P2
2022/12/11 00:00:05;;;;;;;27.70;11.30;;;;;;;-0.54;100.00;97149.80;103249;1289;138620;-73
2022/12/11 00:02:32;;;;;;;28.40;12.40;;;;;;;-0.53;100.00;97147.67;103555;1289;23917;-73
2022/12/11 00:04:59;;;;;;;25.80;12.40;;;;;;;-0.52;100.00;97148.41;103164;1288;138667;-73
2022/12/11 00:07:26;;;;;;;27.40;12.20;;;;;;;-0.52;100.00;97148.09;103184;1306;22520;-73
2022/12/11 00:09:53;;;;;;;25.70;11.90;;;;;;;-0.53;99.99;97143.35;103153;1288;22554;-73
2022/12/11 00:12:20;;;;;;;26.60;12.40;;;;;;;-0.54;99.81;97144.29;103250;1303;139330;-73
2022/12/11 00:14:47;;;;;;;28.10;12.70;;;;;;;-0.58;99.93;97138.47;103282;1304;22511;-73
2022/12/11 00:17:14;;;;;;;26.50;11.30;;;;;;;-0.59;99.93;97140.19;103264;1288;138376;-73
2022/12/11 00:19:40;;;;;;;23.20;10.90;;;;;;;-0.58;100.00;97137.35;103073;1312;22478;-73
2022/12/11 00:22:07;;;;;;;24.50;11.90;;;;;;;-0.56;100.00;97138.42;103198;1288;22654;-73
2022/12/11 00:24:34;;;;;;;23.30;11.00;;;;;;;-0.55;100.00;97134.38;103100;1288;140866;-73
2022/12/11 00:27:01;;;;;;;19.90;10.50;;;;;;;-0.56;99.95;97135.75;103092;1290;24313;-73
2022/12/11 00:29:28;;;;;;;23.10;10.60;;;;;;;-0.58;100.00;97128.55;103127;1313;138307;-73
2022/12/11 00:31:55;;;;;;;22.90;11.00;;;;;;;-0.59;99.99;97122.91;103553;1301;22659;-73
2022/12/11 00:34:22;;;;;;;24.50;11.70;;;;;;;-0.59;99.86;97122.41;103566;1287;139033;-73
2022/12/11 00:36:49;;;;;;;23.00;10.90;;;;;;;-0.60;99.90;97117.48;103959;1289;22490;-73
2022/12/11 00:39:16;;;;;;;20.40;9.90;;;;;;;-0.62;99.98;97117.24;104613;1289;23151;-74
2022/12/11 00:41:43;;;;;;;21.40;10.40;;;;;;;-0.62;99.81;97115.55;104183;1296;138238;-73
2022/12/11 00:44:10;;;;;;;26.60;10.60;;;;;;;-0.63;99.93;97109.55;104625;1303;22477;-73
2022/12/11 00:46:37;;;;;;;27.30;11.60;;;;;;;-0.62;100.00;97104.53;103151;1312;138369;-73
2022/12/11 00:49:04;;;;;;;24.80;11.40;;;;;;;-0.60;99.98;97106.51;103246;1302;22464;-73
2022/12/11 00:51:31;;;;;;;25.80;12.80;;;;;;;-0.61;99.95;97103.22;103051;1289;23244;-73
2022/12/11 00:53:58;;;;;;;25.10;11.20;;;;;;;-0.62;99.70;97103.38;103037;1289;138871;-73
2022/12/11 00:56:25;;;;;;;25.60;12.30;;;;;;;-0.64;99.83;97102.36;103200;1298;22472;-73
2022/12/11 00:58:52;;;;;;;28.80;13.10;;;;;;;-0.64;99.99;97100.66;103104;1294;138441;-73
2022/12/11 01:01:22;;;;;;;29.00;12.70;;;;;;;-0.63;99.92;97101.79;103296;1285;22612;-73
2022/12/11 01:03:49;;;;;;;30.80;13.40;;;;;;;-0.64;99.86;97105.40;103329;1313;24225;-73
2022/12/11 01:06:19;;;;;;;26.30;13.10;;;;;;;-0.64;99.91;97104.17;103234;1298;138351;-73
2022/12/11 01:08:47;;;;;;;27.80;12.70;;;;;;;-0.62;99.99;97102.47;103354;1304;22904;-73
2022/12/11 01:11:16;;;;;;;25.70;11.90;;;;;;;-0.62;99.90;97099.06;102989;1312;140558;-73
2022/12/11 01:13:43;;;;;;;26.90;11.30;;;;;;;-0.63;99.91;97101.53;103434;1294;25369;-73
2022/12/11 01:16:13;;;;;;;25.20;10.60;;;;;;;-0.63;99.95;97102.06;103032;1291;22525;-73
2022/12/11 01:18:40;;;;;;;24.80;10.20;;;;;;;-0.64;99.81;97101.73;103368;1308;138217;-74
2022/12/11 01:21:12;;;;;;;23.50;10.60;;;;;;;-0.64;99.85;97099.15;103074;1312;22474;-73
2022/12/11 01:23:39;;;;;;;24.80;11.60;;;;;;;-0.63;99.98;97099.06;103110;1289;138756;-73
2022/12/11 01:26:09;;;;;;;22.40;10.60;;;;;;;-0.63;99.70;97102.48;103118;1296;22669;-73
2022/12/11 01:28:36;;;;;;;26.20;11.60;;;;;;;-0.66;99.67;97104.40;103572;1304;138352;-73
2022/12/11 01:31:11;;;;;;;24.90;11.30;;;;;;;-0.67;99.76;97103.67;103151;1304;22636;-73
2022/12/11 01:33:39;;;;;;;21.40;10.50;;;;;;;-0.68;99.53;97105.11;103493;1312;23872;-73
2022/12/11 01:36:11;;;;;;;20.60;10.10;;;;;;;-0.70;99.75;97106.46;103078;1303;138473;-73
2022/12/11 01:38:39;;;;;;;19.40;9.60;;;;;;;-0.73;99.46;97098.08;103195;1312;23418;-73
2022/12/11 01:41:07;;;;;;;20.90;10.10;;;;;;;-0.74;99.78;97097.75;103141;1302;138513;-73
2022/12/11 01:43:34;;;;;;;24.60;10.40;;;;;;;-0.75;99.69;97093.89;103498;1295;22472;-73
2022/12/11 01:46:01;;;;;;;21.30;9.90;;;;;;;-0.75;99.82;97093.02;103187;1295;24203;-73
2022/12/11 01:48:30;;;;;;;15.90;7.90;;;;;;;-0.75;99.78;97086.98;103427;1289;138122;-73
2022/12/11 01:51:01;;;;;;;17.30;8.20;;;;;;;-0.75;99.78;97092.00;103447;1312;22489;-73
2022/12/11 01:53:36;;;;;;;18.70;9.40;;;;;;;-0.77;99.48;97094.52;103118;1303;138172;-73
2022/12/11 01:56:05;;;;;;;18.30;9.00;;;;;;;-0.79;99.75;97094.17;103111;1312;23118;-73
2022/12/11 01:58:45;;;;;;;18.60;8.60;;;;;;;-0.80;99.52;97092.58;103143;1309;138333;-73
2022/12/11 02:01:21;;;;;;;17.70;7.60;;;;;;;-0.81;99.62;97089.48;103381;1311;22159;-73
2022/12/11 02:03:49;;;;;;;20.40;9.70;;;;;;;-0.82;99.39;97083.16;103221;1287;22699;-73
2022/12/11 02:06:38;;;;;;;20.20;9.40;;;;;;;-0.83;99.83;97083.58;103075;1300;138733;-73
2022/12/11 02:09:08;;;;;;;19.90;9.10;;;;;;;-0.81;99.66;97080.81;103327;1295;25358;-73
2022/12/11 02:12:05;;;;;;;18.00;8.20;;;;;;;-0.81;99.82;97080.04;103302;1284;138191;-73
2022/12/11 02:14:55;;;;;;;18.60;9.50;;;;;;;-0.82;99.51;97078.77;103137;1313;23425;-73
2022/12/11 02:17:35;;;;;;;18.50;9.60;;;;;;;-0.82;99.77;97071.52;103241;1300;138582;-73
2022/12/11 02:20:26;;;;;;;19.20;9.40;;;;;;;-0.83;99.72;97065.73;103181;1285;23891;-73
2022/12/11 02:22:56;;;;;;;20.10;9.70;;;;;;;-0.81;99.70;97061.62;103084;1306;138289;-73
2022/12/11 02:25:49;;;;;;;18.90;8.90;;;;;;;-0.81;99.88;97064.73;103395;1290;25263;-73
2022/12/11 02:28:38;;;;;;;15.20;7.60;;;;;;;-0.81;99.80;97067.66;103421;1287;22717;-73
2022/12/11 02:31:29;;;;;;;19.20;9.20;;;;;;;-0.82;99.69;97069.77;103214;1298;22485;-73
2022/12/11 02:34:11;;;;;;;19.60;8.50;;;;;;;-0.83;99.63;97066.52;103361;1304;22513;-73
2022/12/11 02:36:46;;;;;;;17.90;9.30;;;;;;;-0.86;99.19;97068.07;103061;1285;138931;-73
2022/12/11 02:39:15;;;;;;;18.30;9.40;;;;;;;-0.86;99.48;97068.86;103263;1280;22719;-73
2022/12/11 02:41:47;;;;;;;20.30;9.30;;;;;;;-0.87;99.40;97059.56;103033;1296;138563;-73
2022/12/11 02:44:17;;;;;;;16.90;9.20;;;;;;;-0.87;99.37;97061.12;103055;1296;22544;-73
2022/12/11 02:46:45;;;;;;;19.90;9.40;;;;;;;-0.89;99.44;97059.77;103065;1291;138282;-73
2022/12/11 02:49:13;;;;;;;18.50;9.50;;;;;;;-0.91;99.29;97060.05;103456;1309;24256;-73
2022/12/11 02:51:43;;;;;;;18.00;9.50;;;;;;;-0.93;98.99;97058.05;103501;1298;22584;-73
2022/12/11 02:54:17;;;;;;;18.70;9.20;;;;;;;-0.95;99.07;97057.35;103183;1304;138164;-73
2022/12/11 02:56:56;;;;;;;18.10;7.80;;;;;;;-0.98;99.20;97048.51;103157;1297;22941;-73
2022/12/11 02:59:29;;;;;;;17.70;8.70;;;;;;;-1.01;98.79;97049.79;103072;1287;138303;-73
2022/12/11 03:01:56;;;;;;;22.50;9.30;;;;;;;-1.03;98.97;97051.42;103196;1310;24006;-73
2022/12/11 03:04:23;;;;;;;23.20;10.00;;;;;;;-1.04;99.26;97049.50;103352;1312;22532;-73
2022/12/11 03:06:54;;;;;;;21.40;9.10;;;;;;;-1.05;99.23;97051.71;102963;1312;25253;-73
2022/12/11 03:09:21;;;;;;;21.00;9.70;;;;;;;-1.06;98.99;97052.86;103472;1288;22436;-73
2022/12/11 03:11:48;;;;;;;19.00;9.80;;;;;;;-1.09;98.85;97055.54;103522;1288;138088;-73
2022/12/11 03:14:15;;;;;;;22.20;10.00;;;;;;;-1.11;99.17;97051.02;103090;1295;22615;-73
2022/12/11 03:16:54;;;;;;;20.70;10.00;;;;;;;-1.13;99.18;97045.02;103114;1289;138520;-73
2022/12/11 03:19:30;;;;;;;20.40;10.70;;;;;;;-1.13;99.46;97044.52;103254;1288;22482;-73
2022/12/11 03:22:24;;;;;;;17.70;9.30;;;;;;;-1.12;99.66;97044.40;103206;1294;24233;-73
2022/12/11 03:25:11;;;;;;;19.20;9.10;;;;;;;-1.13;99.39;97048.05;103364;1306;137897;-73
2022/12/11 03:28:18;;;;;;;16.30;8.90;;;;;;;-1.13;99.59;97040.62;103451;1312;26599;-73
2022/12/11 03:30:49;;;;;;;17.50;8.30;;;;;;;-1.13;99.68;97036.02;103477;1305;138420;-73
2022/12/11 03:33:28;;;;;;;17.20;8.10;;;;;;;-1.15;99.33;97033.51;103404;1288;22481;-73
2022/12/11 03:36:00;;;;;;;14.60;7.80;;;;;;;-1.17;99.58;97030.20;103373;1303;138130;-73
2022/12/11 03:38:36;;;;;;;19.50;8.90;;;;;;;-1.17;99.35;97029.53;102951;1310;22679;-73
2022/12/11 03:41:05;;;;;;;16.80;8.30;;;;;;;-1.17;99.72;97027.39;103349;1305;138299;-73
2022/12/11 03:43:33;;;;;;;;;;;;;;;-1.17;99.68;97019.30;103340;1294;23866;-73
2022/12/11 03:46:00;;;;;;;16.00;7.90;;;;;;;-1.17;99.55;97018.11;103121;1312;25342;-73
2022/12/11 03:48:32;;;;;;;21.40;8.80;;;;;;;-1.17;99.65;97020.45;103356;1302;138133;-73
2022/12/11 03:51:03;;;;;;;17.30;8.90;;;;;;;-1.18;99.57;97015.94;103253;1297;23267;-73
2022/12/11 03:53:33;;;;;;;18.40;8.80;;;;;;;-1.21;99.52;97008.98;102966;1281;138159;-73
2022/12/11 03:56:03;;;;;;;16.80;8.80;;;;;;;-1.25;99.44;97003.67;103616;1289;25591;-74
2022/12/11 03:58:30;;;;;;;15.20;7.60;;;;;;;-1.28;99.36;97005.73;103091;1287;138273;-74
2022/12/11 04:00:57;;;;;;;14.80;7.70;;;;;;;-1.30;99.50;97009.52;103029;1303;22479;-73
2022/12/11 04:03:24;;;;;;;13.80;7.40;;;;;;;-1.33;99.56;97004.17;103058;1293;22478;-73
2022/12/11 04:05:53;;;;;;;14.90;7.20;;;;;;;-1.35;99.58;97007.14;103581;1299;138914;-73
2022/12/11 04:08:21;;;;;;;15.50;8.30;;;;;;;-1.37;99.74;97011.86;103272;1301;22507;-73
2022/12/11 04:11:33;;;;;;;16.90;8.20;;;;;;;-1.38;99.47;97007.05;103107;1305;138243;-73
2022/12/11 04:13:38;;;;;;;16.90;7.70;;;;;;;-1.41;99.53;97013.53;103067;1288;22504;-74
2022/12/11 04:16:06;;;;;;;12.40;7.00;;;;;;;-1.43;99.55;97011.98;103347;1311;22464;-73
2022/12/11 04:24:16;;;;;;;11.80;6.50;;;;;;;-1.47;99.90;97000.36;103193;1294;138966;-73
2022/12/11 04:26:45;;;;;;;14.30;6.90;;;;;;;-1.47;99.90;96997.23;103045;1312;25684;-73
2022/12/11 04:29:13;;;;;;;16.50;7.60;;;;;;;-1.48;99.90;97002.08;103350;1312;138742;-73
2022/12/11 04:31:40;;;;;;;14.70;6.20;;;;;;;-1.50;99.88;97001.21;103210;1295;24359;-73
2022/12/11 04:34:07;;;;;;;14.20;7.40;;;;;;;-1.54;99.89;97006.10;103355;1309;22888;-73
2022/12/11 04:36:34;;;;;;;15.00;7.70;;;;;;;-1.56;99.82;97003.76;103033;1313;138317;-73
2022/12/11 04:39:03;;;;;;;15.50;7.60;;;;;;;-1.57;99.93;97006.50;103061;1288;22493;-73
2022/12/11 04:41:30;;;;;;;14.00;7.20;;;;;;;-1.57;99.96;97002.06;103416;1292;138106;-73
2022/12/11 04:43:57;;;;;;;16.60;7.10;;;;;;;-1.58;99.96;97005.19;103024;1301;22500;-73
2022/12/11 04:46:24;;;;;;;14.70;7.20;;;;;;;-1.59;99.97;97007.08;103077;1303;22812;-73
2022/12/11 04:48:52;;;;;;;14.10;7.00;;;;;;;-1.59;100.00;97007.77;102872;1312;138052;-73
2022/12/11 04:51:19;;;;;;;15.30;7.50;;;;;;;-1.59;100.00;97001.66;102964;1312;25700;-74
2022/12/11 04:53:46;;;;;;;15.30;7.20;;;;;;;-1.59;100.00;97002.84;103054;1297;139821;-74
2022/12/11 04:56:15;;;;;;;16.60;8.60;;;;;;;-1.58;100.00;97002.05;103054;1296;22721;-73
2022/12/11 04:58:43;;;;;;;13.60;7.20;;;;;;;-1.58;100.00;97000.98;103091;1312;138481;-74
2022/12/11 05:01:13;;;;;;;16.00;8.20;;;;;;;-1.60;100.00;96998.73;103365;1312;22889;-73
2022/12/11 05:03:41;;;;;;;17.40;8.80;;;;;;;-1.62;100.00;96993.23;103122;1308;22690;-73
2022/12/11 05:06:09;;;;;;;14.70;8.00;;;;;;;-1.63;99.99;96994.46;103428;1308;138383;-73
2022/12/11 05:08:39;;;;;;;16.00;8.20;;;;;;;-1.64;100.00;96997.34;103404;1304;23885;-73
2022/12/11 05:11:07;;;;;;;;;;;;;;;-1.65;100.00;96997.34;103183;1310;138560;-73
2022/12/11 05:13:34;;;;;;;15.10;7.90;;;;;;;-1.67;99.97;96992.04;103040;1286;24400;-73
2022/12/11 05:16:07;;;;;;;12.70;7.10;;;;;;;-1.68;100.00;96987.14;103108;1296;25367;-73
2022/12/11 05:18:34;;;;;;;17.70;8.60;;;;;;;-1.68;99.99;96990.68;102990;1308;138310;-74
2022/12/11 05:21:07;;;;;;;15.40;8.40;;;;;;;-1.67;100.00;96986.38;103099;1310;22471;-73
2022/12/11 05:23:34;;;;;;;15.50;7.70;;;;;;;-1.68;99.98;96983.61;103035;1310;138299;-72
2022/12/11 05:26:04;;;;;;;14.50;7.50;;;;;;;-1.68;99.93;96977.79;103458;1294;25396;-72
2022/12/11 05:28:34;;;;;;;13.00;7.50;;;;;;;-1.70;99.95;96976.17;103041;1302;138735;-72
2022/12/11 05:31:04;;;;;;;17.10;9.20;;;;;;;-1.71;99.90;96977.58;103287;1300;25322;-72
2022/12/11 05:33:33;;;;;;;18.50;8.90;;;;;;;-1.74;99.98;96975.27;102349;1302;1324333;-72
2022/12/11 05:36:00;;;;;;;17.90;8.30;;;;;;;-1.75;99.89;96971.83;103378;1311;138642;-72
2022/12/11 05:38:27;;;;;;;18.70;9.30;;;;;;;-1.76;99.96;96976.06;103135;1299;22511;-72
2022/12/11 05:41:02;;;;;;;18.50;9.40;;;;;;;-1.75;100.00;96971.17;103162;1294;139135;-72
2022/12/11 05:43:30;;;;;;;17.20;8.30;;;;;;;-1.76;99.91;96974.66;103235;1288;24273;-72
2022/12/11 05:46:09;;;;;;;18.00;8.00;;;;;;;-1.76;100.00;96968.30;103144;1310;22482;-72
2022/12/11 05:48:37;;;;;;;21.80;10.80;;;;;;;-1.77;99.81;96971.38;103158;1303;138707;-72
2022/12/11 05:51:07;;;;;;;16.60;8.50;;;;;;;-1.78;99.88;96965.38;103421;1303;22559;-72
2022/12/11 05:53:38;;;;;;;18.30;8.60;;;;;;;-1.81;99.66;96965.42;103037;1312;138338;-73
2022/12/11 05:56:14;;;;;;;19.60;9.30;;;;;;;-1.85;99.57;96964.10;103565;1310;22494;-72
2022/12/11 05:58:43;;;;;;;16.40;8.30;;;;;;;-1.88;99.56;96954.23;103197;1302;139318;-73
2022/12/11 06:01:14;;;;;;;15.00;8.40;;;;;;;-1.91;99.34;96954.20;103139;1288;22481;-72
2022/12/11 06:03:41;;;;;;;18.00;8.60;;;;;;;-1.92;99.92;96951.94;103107;1300;25387;-73
2022/12/11 06:06:08;;;;;;;16.60;8.70;;;;;;;-1.93;99.69;96949.59;103714;1299;138790;-72
2022/12/11 06:08:35;;;;;;;17.60;7.70;;;;;;;-1.94;99.52;96942.78;103575;1290;22491;-72
2022/12/11 06:11:03;;;;;;;19.90;9.20;;;;;;;-1.96;99.60;96939.30;103078;1305;138492;-73
2022/12/11 06:13:30;;;;;;;17.60;8.60;;;;;;;-1.98;99.52;96943.44;103213;1294;22461;-72
2022/12/11 06:16:02;;;;;;;16.40;8.60;;;;;;;-1.99;99.71;96951.23;103537;1291;22252;-72
2022/12/11 06:18:30;;;;;;;16.50;8.90;;;;;;;-2.00;99.79;96951.19;103409;1312;139601;-73
2022/12/11 06:20:57;;;;;;;14.90;8.40;;;;;;;-2.01;99.95;96955.95;103142;1288;22486;-73
2022/12/11 06:23:24;;;;;;;15.90;8.40;;;;;;;-2.01;99.78;96956.31;103331;1310;138365;-73
2022/12/11 06:25:50;;;;;;;14.00;6.40;;;;;;;-2.02;99.82;96959.30;103076;1290;25260;-73
2022/12/11 06:28:17;;;;;;;22.40;10.20;;;;;;;-2.03;99.63;96961.35;103256;1312;23257;-73
2022/12/11 06:30:44;;;;;;;19.60;9.90;;;;;;;-2.03;99.89;96965.30;103174;1312;138327;-73
2022/12/11 06:33:12;;;;;;;19.60;8.80;;;;;;;-2.03;99.74;96964.03;103527;1302;22518;-73
2022/12/11 06:35:39;;;;;;;17.80;9.00;;;;;;;-2.02;99.70;96962.83;104484;1296;138192;-73
2022/12/11 06:38:06;;;;;;;14.90;7.00;;;;;;;-2.02;99.78;96965.70;103161;1311;24060;-73
2022/12/11 06:40:33;;;;;;;17.90;8.80;;;;;;;-2.02;99.42;96972.11;103138;1313;138732;-73
2022/12/11 06:43:00;;;;;;;18.80;8.80;;;;;;;-2.03;99.14;96975.64;103125;1313;24281;-73
2022/12/11 06:45:26;;;;;;;18.30;9.70;;;;;;;-2.02;99.22;96984.41;103163;1295;22470;-73
2022/12/11 06:47:53;;;;;;;18.30;8.90;;;;;;;-2.03;99.30;96987.33;103056;1298;138970;-73
2022/12/11 06:50:20;;;;;;;19.90;9.90;;;;;;;-2.02;99.34;96983.45;103157;1312;22470;-73
2022/12/11 06:52:47;;;;;;;18.60;9.70;;;;;;;-2.01;99.26;96981.42;103173;1304;138729;-73
2022/12/11 06:55:14;;;;;;;20.10;9.60;;;;;;;-2.02;99.32;96979.83;103080;1312;24254;-73
2022/12/11 06:57:41;;;;;;;18.20;9.30;;;;;;;-1.98;99.46;96985.09;104457;1301;22489;-73
2022/12/11 07:00:09;;;;;;;14.90;8.10;;;;;;;-1.97;99.39;96980.00;103815;1289;139917;-72
2022/12/11 07:02:36;;;;;;;20.90;9.40;;;;;;;-1.96;99.24;96980.95;103520;1289;25356;-72
2022/12/11 07:05:04;;;;;;;18.90;9.80;;;;;;;-1.96;99.20;96982.05;103579;1305;138288;-72
2022/12/11 07:07:31;;;;;;;20.40;9.70;;;;;;;-1.95;99.25;96989.32;104190;1295;22502;-72
2022/12/11 07:09:58;;;;;;;18.60;10.00;;;;;;;-1.96;99.28;96983.90;103823;1304;22500;-72
2022/12/11 07:12:24;;;;;;;19.50;9.90;;;;;;;-1.96;99.54;96974.62;103346;1289;138306;-72
2022/12/11 07:14:51;;;;;;;18.40;8.50;;;;;;;-1.98;99.43;96978.68;103465;1291;22512;-72
2022/12/11 07:17:18;;;;;;;16.00;7.50;;;;;;;-1.98;99.33;96988.29;103974;1304;138769;-72
2022/12/11 07:19:45;;;;;;;14.60;7.90;;;;;;;-1.98;99.15;96988.04;103582;1303;23120;-72
2022/12/11 07:22:12;;;;;;;14.90;7.50;;;;;;;-1.98;99.01;96982.17;103380;1305;22488;-72
2022/12/11 07:24:39;;;;;;;17.10;8.10;;;;;;;-1.97;98.60;96986.33;103752;1312;138195;-72
2022/12/11 07:27:06;;;;;;;14.40;7.80;;;;;;;-1.98;98.48;96987.46;104076;1284;22331;-72
2022/12/11 07:29:33;;;;;;;12.90;7.50;;;;;;;-1.99;98.70;96986.59;103376;1301;138863;-72
2022/12/11 07:32:00;;;;;;;17.60;8.00;;;;;;;-1.99;98.45;96992.27;103483;1295;25367;-72
2022/12/11 07:34:27;;;;;;;15.90;8.30;;;;;;;-1.99;98.74;96995.34;103756;1284;22832;-72
2022/12/11 07:36:54;;;;;;;18.00;8.40;;;;;;;-1.97;98.80;96991.90;103661;1291;137878;-72
2022/12/11 07:39:21;;;;;;;15.00;7.70;;;;;;;-1.97;98.46;96982.79;103553;1310;22947;-73
2022/12/11 07:41:48;;;;;;;16.00;7.40;;;;;;;-1.99;98.12;96984.70;103255;1288;138649;-72
2022/12/11 07:44:16;;;;;;;15.80;8.30;;;;;;;-2.02;98.05;96991.64;103301;1308;22932;-72
2022/12/11 07:46:42;;;;;;;16.60;8.50;;;;;;;-2.03;98.02;96993.02;103107;1287;138850;-72
2022/12/11 07:49:09;;;;;;;15.40;7.30;;;;;;;-2.01;98.44;96994.75;103831;1297;23084;-72
2022/12/11 07:51:37;;;;;;;14.00;7.00;;;;;;;-2.01;98.48;96994.84;103572;1291;25370;-72
2022/12/11 07:54:07;;;;;;;14.50;7.50;;;;;;;-2.03;97.81;96997.50;103166;1312;138650;-72
2022/12/11 07:56:34;;;;;;;15.60;7.80;;;;;;;-2.06;97.51;96995.24;103482;1309;23224;-73
2022/12/11 07:59:03;;;;;;;16.50;7.80;;;;;;;-2.07;97.62;96991.09;104177;1284;138426;-72
2022/12/11 08:01:34;;;;;;;16.10;6.80;;;;;;;-2.07;97.76;96988.76;103555;1304;25384;-72
2022/12/11 08:04:03;;;;;;;15.30;7.10;;;;;;;-2.06;97.48;96987.73;103920;1289;23272;-73
2022/12/11 08:06:33;;;;;;;16.30;7.20;;;;;;;-2.05;97.70;96988.34;103646;1296;139135;-73
2022/12/11 08:09:02;;;;;;;16.20;8.00;;;;;;;-2.04;97.68;96994.58;103288;1300;24356;-72
2022/12/11 08:11:29;;;;;;;;;;;;;;;-2.03;97.45;96996.40;103433;1304;139868;-72
2022/12/11 08:13:58;;;;;;;17.00;7.60;;;;;;;-2.01;97.67;96999.13;103113;1312;24411;-72
2022/12/11 08:16:26;;;;;;;13.00;7.40;;;;;;;-2.00;97.34;96998.63;103547;1304;22521;-72
2022/12/11 08:18:53;;;;;;;16.80;8.40;;;;;;;-1.99;96.81;96997.48;103849;1285;138772;-73
2022/12/11 08:21:23;;;;;;;14.40;8.10;;;;;;;-1.98;96.94;96999.86;103574;1306;22747;-73
2022/12/11 08:23:51;;;;;;;;;;;;;;;-1.97;96.70;96997.73;103424;1306;138765;-73
2022/12/11 08:26:21;;;;;;;15.20;8.50;;;;;;;-1.97;96.27;96992.14;103195;1305;22611;-73
2022/12/11 08:28:48;;;;;;;14.80;8.30;;;;;;;-1.96;96.07;96993.59;103028;1310;138527;-73
2022/12/11 08:31:16;;;;;;;15.70;7.00;;;;;;;-1.97;95.96;96992.80;103134;1307;22906;-72
2022/12/11 08:33:44;;;;;;;16.70;8.80;;;;;;;-1.98;95.93;96993.95;103097;1302;22527;-72
2022/12/11 08:36:15;;;;;;;17.60;9.20;;;;;;;-1.98;96.02;96995.89;103082;1312;138162;-72
2022/12/11 08:38:42;;;;;;;15.00;7.50;;;;;;;-1.97;95.61;96995.76;103730;1302;22493;-72
2022/12/11 08:41:23;;;;;;;16.20;9.60;;;;;;;-1.96;95.47;96999.25;103230;1313;138266;-72
2022/12/11 08:43:53;;;;;;;17.80;9.30;;;;;;;-1.96;95.29;96997.98;103404;1288;22627;-72
2022/12/11 08:46:24;;;;;;;17.70;9.20;;;;;;;-1.94;95.87;96996.14;103315;1297;25455;-72
2022/12/11 08:48:51;;;;;;;16.80;8.80;;;;;;;-1.91;95.55;96994.25;104025;1289;138727;-73
2022/12/11 08:51:23;;;;;;;18.50;9.70;;;;;;;-1.91;94.54;96991.00;103307;1297;25695;-73
2022/12/11 08:53:50;;;;;;;17.20;8.70;;;;;;;-1.92;94.56;96983.16;103136;1306;138176;-73
2022/12/11 08:56:19;;;;;;;18.10;9.30;;;;;;;-1.91;94.33;96985.35;103792;1297;22591;-73
2022/12/11 08:58:47;;;;;;;14.80;8.20;;;;;;;-1.92;93.77;96991.59;103855;1288;138468;-74
2022/12/11 09:01:20;;;;;;;15.80;7.80;;;;;;;-1.94;93.64;96991.82;103329;1309;22482;-73
2022/12/11 09:03:48;;;;;;;18.00;10.00;;;;;;;-1.92;94.08;96984.97;103464;1281;22510;-73
2022/12/11 09:06:18;;;;;;;16.10;8.80;;;;;;;-1.89;94.03;96980.80;103433;1290;138247;-72
2022/12/11 09:08:47;;;;;;;15.50;9.10;;;;;;;-1.84;94.31;96988.11;103203;1305;22616;-73
2022/12/11 09:11:23;;;;;;;20.60;10.40;;;;;;;-1.79;94.34;96986.77;103291;1284;139034;-72
2022/12/11 09:13:51;;;;;;;16.70;8.60;;;;;;;-1.75;93.47;96990.18;103497;1298;22488;-72
2022/12/11 09:16:20;;;;;;;16.20;9.50;;;;;;;-1.75;92.31;96992.19;103139;1313;23216;-73
2022/12/11 09:18:48;;;;;;;;;;;;;;;-1.79;91.77;96988.98;103295;1298;138771;-73
2022/12/11 09:21:17;;;;;;;15.10;7.30;;;;;;;-1.82;91.61;96986.39;103344;1305;22489;-73
2022/12/11 09:23:45;;;;;;;17.30;8.40;;;;;;;-1.83;91.77;96992.51;102967;1287;138433;-73
2022/12/11 09:26:14;;;;;;;17.10;7.50;;;;;;;-1.81;92.04;96999.40;103647;1296;25381;-73
2022/12/11 09:28:42;;;;;;;15.30;7.90;;;;;;;-1.81;91.81;97001.21;103122;1297;138452;-73
2022/12/11 09:31:11;;;;;;;14.80;8.40;;;;;;;-1.81;91.93;96997.92;103176;1289;22532;-73
2022/12/11 09:33:38;;;;;;;15.30;7.20;;;;;;;-1.79;92.46;97000.02;103161;1288;22471;-73
2022/12/11 09:36:06;;;;;;;14.70;8.30;;;;;;;-1.78;92.12;97001.09;103075;1304;138878;-73
2022/12/11 09:38:35;;;;;;;20.60;10.00;;;;;;;-1.76;92.29;97000.61;103321;1304;22493;-73
2022/12/11 09:41:22;;;;;;;20.50;9.80;;;;;;;-1.72;92.74;96996.55;104056;1305;138521;-73
2022/12/11 09:44:11;;;;;;;19.30;9.50;;;;;;;-1.64;92.80;96991.35;103277;1313;24333;-73
2022/12/11 09:46:40;;;;;;;16.10;7.80;;;;;;;-1.59;92.48;96980.38;103097;1312;139317;-73
2022/12/11 09:49:33;;;;;;;17.70;8.70;;;;;;;-1.55;91.80;96977.55;103419;1289;24308;-73
2022/12/11 09:52:21;;;;;;;16.00;8.90;;;;;;;-1.51;91.52;96973.73;103145;1291;22510;-73
2022/12/11 09:54:53;;;;;;;17.50;9.30;;;;;;;-1.47;91.10;96973.90;103232;1312;138086;-73
2022/12/11 09:57:20;;;;;;;15.90;9.20;;;;;;;-1.44;90.78;96969.83;103134;1305;23570;-73
2022/12/11 09:59:56;;;;;;;17.00;9.50;;;;;;;-1.39;90.85;96963.38;103158;1303;138471;-73
2022/12/11 10:02:24;;;;;;;20.00;10.00;;;;;;;-1.34;90.70;96960.67;103778;1298;25387;-73
2022/12/11 10:05:10;;;;;;;16.70;10.20;;;;;;;-1.24;90.29;96965.31;103068;1304;138524;-73
2022/12/11 10:08:00;;;;;;;16.80;10.10;;;;;;;-1.10;90.27;96961.27;103160;1305;22495;-73
2022/12/11 10:10:30;;;;;;;20.10;10.30;;;;;;;-0.95;89.57;96961.27;103278;1289;24412;-73
2022/12/11 10:13:30;;;;;;;17.30;10.90;;;;;;;-0.79;89.96;96961.69;103045;1289;138270;-73
2022/12/11 10:16:20;;;;;;;20.20;11.40;;;;;;;-0.64;89.49;96965.69;103332;1306;22494;-73
2022/12/11 10:18:47;;;;;;;17.50;10.00;;;;;;;-0.53;89.40;96968.61;102764;1296;138587;-73
2022/12/11 10:21:17;;;;;;;18.40;10.20;;;;;;;-0.39;89.26;96962.66;103113;1313;23549;-73
2022/12/11 10:23:55;;;;;;;17.40;10.10;;;;;;;-0.31;88.27;96966.14;103177;1288;139181;-73
2022/12/11 10:26:22;;;;;;;15.60;9.40;;;;;;;-0.26;87.07;96968.00;103250;1313;23545;-74
2022/12/11 10:28:49;;;;;;;18.00;10.40;;;;;;;-0.27;86.16;96970.73;103007;1304;140168;-73
2022/12/11 10:31:19;;;;;;;18.40;10.60;;;;;;;-0.29;85.75;96970.58;103083;1311;22489;-73
2022/12/11 10:34:01;;;;;;;16.20;9.80;;;;;;;-0.35;85.77;96969.93;102988;1302;25546;-73
2022/12/11 10:36:40;;;;;;;16.30;10.00;;;;;;;-0.39;85.90;96966.55;103084;1312;138610;-73
2022/12/11 10:39:14;;;;;;;17.90;9.50;;;;;;;-0.39;86.66;96959.09;103212;1308;22630;-73
2022/12/11 10:41:44;;;;;;;16.30;9.80;;;;;;;-0.37;86.02;96962.16;103151;1277;138356;-73
2022/12/11 10:44:27;;;;;;;17.60;10.00;;;;;;;-0.41;85.53;96963.26;103128;1310;24247;-73
2022/12/11 10:47:02;;;;;;;16.90;10.00;;;;;;;-0.44;85.23;96962.73;103078;1310;138403;-73
2022/12/11 10:49:33;;;;;;;15.80;9.30;;;;;;;-0.47;85.68;96963.73;103277;1306;23523;-73
2022/12/11 10:52:08;;;;;;;16.40;9.90;;;;;;;-0.46;86.17;96966.33;103469;1288;25410;-73
2022/12/11 10:54:39;;;;;;;17.90;9.70;;;;;;;-0.43;86.51;96959.39;102892;1288;138137;-73
2022/12/11 10:57:09;;;;;;;16.90;9.70;;;;;;;-0.36;85.48;96962.45;103151;1312;24287;-73
2022/12/11 10:59:43;;;;;;;19.40;12.20;;;;;;;-0.32;85.42;96950.52;103129;1312;138139;-73
2022/12/11 11:02:24;;;;;;;16.70;10.10;;;;;;;-0.32;84.19;96950.14;104268;1281;22699;-73
2022/12/11 11:04:53;;;;;;;21.10;11.20;;;;;;;-0.35;83.41;96954.67;103284;1282;139552;-73
2022/12/11 11:07:24;;;;;;;16.90;11.20;;;;;;;-0.38;84.11;96951.42;103555;1289;22492;-73
2022/12/11 11:10:22;;;;;;;20.60;11.70;;;;;;;-0.35;84.60;96949.11;103185;1289;22502;-73
2022/12/11 11:12:59;;;;;;;15.40;9.70;;;;;;;-0.32;84.69;96944.33;103008;1288;138523;-73
2022/12/11 11:15:28;;;;;;;18.40;11.00;;;;;;;-0.35;84.52;96943.31;103597;1306;22500;-74
2022/12/11 11:17:56;;;;;;;;;;;;;;;-0.36;84.83;96935.17;102837;1291;138504;-73
2022/12/11 11:20:27;;;;;;;19.40;11.60;;;;;;;-0.34;84.69;96936.33;103563;1281;22545;-73
2022/12/11 11:22:59;;;;;;;17.20;10.60;;;;;;;-0.30;84.56;96939.88;104167;1289;138527;-73
2022/12/11 11:25:28;;;;;;;19.10;10.70;;;;;;;-0.29;83.48;96935.43;103118;1303;22489;-73
2022/12/11 11:28:00;;;;;;;19.10;11.10;;;;;;;-0.30;83.26;96936.22;103005;1288;22520;-73
2022/12/11 11:30:40;;;;;;;17.70;10.90;;;;;;;-0.30;83.37;96936.80;103159;1280;138283;-73
2022/12/11 11:33:17;;;;;;;16.00;10.00;;;;;;;-0.25;83.88;96934.88;103092;1311;22878;-73